Latest Weather Observations for High Range (Wanganderry)

IDN60801

Issued at 10:03 am EST Tuesday 28 April 2015 (issued every 30 minutes, with the page automatically refreshed every 10 minutes)

About weather observations | Map of weather stations | Latest weather observations for NSW | Other Formats
Station Details ID: 068262 Name: HIGH RANGE AWS (WANGANDERRY) Lat: -34.33 Lon: 150.27 Height: 813.6 m
Data from the previous 72 hours. | See also: Recent months for locations in New South Wales
Date/Time
EST
Temp
°C
App
Temp
°C
Dew
Point
Rel
Hum
%
Delta-T
°C
Wind Press
QNH
hPa
Press
MSL
hPa
Rain
since 9 am
mm
Dir
 
Spd
km/h
Gust
km/h
Spd
kts
Gust
kts
28/10:00am 11.1 6.4 5.2 67 2.8 S 19 24 10 13 1026.7 1025.0 0.0
28/09:30am 10.0 5.2 4.8 70 2.4 S 19 22 10 12 1026.6 1024.9 0.0
28/09:00am 9.1 4.3 4.7 74 2.0 S 19 24 10 13 1026.5 1024.8 0.0
28/08:30am 8.1 3.5 3.9 75 1.9 SSW 17 22 9 12 1026.1 1024.4 0.0
28/08:00am 7.1 2.5 3.5 78 1.6 SSW 17 20 9 11 1025.9 1024.2 0.0
28/07:30am 5.8 1.1 3.0 82 1.2 SSW 17 20 9 11 1025.5 1023.8 0.0
28/07:00am 4.7 -0.2 2.1 83 1.1 SSW 17 20 9 11 1025.2 1023.4 0.0
28/06:30am 4.4 -0.8 2.3 86 0.9 SSW 19 20 10 11 1024.8 1023.1 0.0
28/06:00am 4.3 -0.9 2.3 87 0.8 SSW 19 20 10 11 1024.5 1022.8 0.0
28/05:30am 4.5 -0.4 2.2 85 1.0 SSW 17 19 9 10 1024.2 1022.4 0.0
28/05:00am 4.6 0.1 2.3 85 1.0 SSW 15 19 8 10 1023.9 1022.1 0.0
28/04:30am 4.5 -0.3 2.4 86 0.9 SSW 17 19 9 10 1023.7 1021.9 0.0
28/04:00am 4.9 0.5 2.6 85 1.0 SSW 15 19 8 10 1023.3 1021.6 0.0
28/03:30am 5.0 0.6 2.9 86 0.9 SSW 15 17 8 9 1023.1 1021.3 0.0
28/03:00am 5.5 1.2 3.2 85 1.0 SW 15 17 8 9 1023.0 1021.2 0.0
28/02:30am 5.2 0.5 2.9 85 1.0 SW 17 17 9 9 1023.0 1021.2 0.0
28/02:00am 5.2 1.2 2.7 84 1.1 SW 13 15 7 8 1023.1 1021.3 0.0
28/01:30am 6.2 2.2 3.0 80 1.4 WSW 13 17 7 9 1023.2 1021.5 0.0
28/01:00am 6.4 2.0 2.9 78 1.5 WSW 15 15 8 8 1023.1 1021.3 0.0
28/12:30am 6.7 2.4 3.1 78 1.6 WSW 15 15 8 8 1023.2 1021.5 0.0
28/12:00am 6.8 2.8 3.1 77 1.6 WSW 13 15 7 8 1023.2 1021.5 0.0
 
Date/Time
EST
Temp
°C
App
Temp
°C
Dew
Point
Rel
Hum
%
Delta-T
°C
Wind Press
QNH
hPa
Press
MSL
hPa
Rain
since 9 am
mm
Dir
 
Spd
km/h
Gust
km/h
Spd
kts
Gust
kts
27/11:30pm 6.6 3.0 2.9 77 1.6 WSW 11 13 6 7 1023.2 1021.5 0.0
27/11:00pm 6.7 2.4 3.0 77 1.6 WSW 15 17 8 9 1023.2 1021.5 0.0
27/10:30pm 7.0 2.7 3.1 76 1.7 WSW 15 17 8 9 1023.3 1021.6 0.0
27/10:00pm 6.9 3.0 3.2 77 1.6 WSW 13 19 7 10 1023.2 1021.5 0.0
27/09:30pm 5.9 2.6 2.4 78 1.5 WSW 9 13 5 7 1023.1 1021.3 0.0
27/09:00pm 7.0 3.4 2.7 74 1.9 SW 11 13 6 7 1022.9 1021.1 0.0
27/08:30pm 7.0 4.0 2.3 72 2.0 WSW 7 7 4 4 1022.8 1021.0 0.0
27/08:00pm 7.3 3.6 2.6 72 2.1 WSW 11 15 6 8 1022.5 1020.7 0.0
27/07:30pm 7.5 3.1 2.6 71 2.2 W 15 17 8 9 1022.0 1020.2 0.0
27/07:00pm 7.7 3.8 3.2 73 2.0 W 13 15 7 8 1021.6 1019.8 0.0
27/06:30pm 8.0 4.4 3.1 71 2.2 W 11 15 6 8 1021.2 1019.4 0.0
27/06:00pm 8.9 4.7 3.7 70 2.4 WSW 15 20 8 11 1020.7 1018.9 0.0
27/05:30pm 9.3 5.5 3.7 68 2.6 SW 13 15 7 8 1020.4 1018.6 0.0
27/05:00pm 10.3 6.9 4.2 66 2.8 SSW 11 15 6 8 1020.1 1018.3 0.0
27/04:30pm 11.1 7.3 3.9 61 3.4 SW 13 17 7 9 1019.8 1017.9 0.0
27/04:00pm 11.1 7.7 4.1 62 3.3 SSW 11 13 6 7 1019.7 1017.8 0.0
27/03:30pm 12.4 8.1 3.1 53 4.3 SSW 15 19 8 10 1019.5 1017.7 0.0
27/03:00pm 12.3 9.6 3.5 55 4.1 S 7 11 4 6 1019.4 1017.6 0.0
27/02:30pm 14.0 11.4 4.3 52 4.7 SW 7 15 4 8 1019.1 1017.3 0.0
27/02:00pm 12.1 9.4 3.9 57 3.8 S 7 11 4 6 1019.1 1017.3 0.0
27/01:30pm 12.6 9.5 3.6 54 4.2 SW 9 17 5 9 1019.0 1017.2 0.0
27/01:00pm 11.4 8.7 3.9 60 3.5 SW 7 15 4 8 1018.9 1017.1 0.0
27/12:30pm 12.4 8.7 4.6 59 3.7 S 13 20 7 11 1019.0 1017.2 0.0
27/12:00pm 13.2 9.4 5.6 60 3.7 SSW 15 20 8 11 1019.2 1017.4 0.0
27/11:30am 12.0 7.5 4.2 59 3.7 SSW 17 28 9 15 1019.4 1017.6 0.0
27/11:00am 11.7 7.9 3.7 58 3.7 WSW 13 24 7 13 1019.4 1017.6 0.0
27/10:30am 10.7 6.6 4.2 64 3.0 WSW 15 19 8 10 1019.7 1017.8 0.0
27/10:00am 10.0 5.1 4.2 67 2.7 SW 19 28 10 15 1019.7 1017.8 0.0
27/09:30am 9.6 4.7 5.2 74 2.1 SW 20 30 11 16 1019.4 1017.6 0.0
27/09:00am 9.0 4.1 5.2 77 1.8 WSW 20 30 11 16 1019.4 1017.6 2.8
27/08:30am 8.3 3.3 4.5 77 1.8 W 20 26 11 14 1019.1 1017.3 2.8
27/08:00am 7.5 2.2 5.1 85 1.1 W 22 30 12 16 1019.0 1017.2 2.8
27/07:30am 6.7 0.6 4.9 88 0.8 W 26 35 14 19 1018.5 1016.6 2.8
27/07:00am 5.9 0.5 4.5 91 0.6 W 22 28 12 15 1018.2 1016.4 2.8
27/06:30am 5.8 0.5 4.9 94 0.4 W 22 30 12 16 1017.8 1016.0 2.8
27/06:00am 5.7 0.9 4.7 93 0.5 W 19 24 10 13 1017.6 1015.7 2.8
27/05:30am 6.2 1.2 4.8 91 0.6 W 20 28 11 15 1017.3 1015.4 2.8
27/05:00am 6.4 0.7 4.9 90 0.7 W 24 30 13 16 1017.1 1015.2 2.8
27/04:30am 6.4 1.6 5.4 93 0.5 WSW 20 26 11 14 1016.8 1015.0 2.8
27/04:00am 6.7 1.1 5.5 92 0.6 WSW 24 35 13 19 1016.5 1014.6 2.8
27/03:30am 6.5 0.5 5.5 93 0.5 WSW 26 32 14 17 1016.1 1014.2 2.8
27/03:00am 6.3 1.1 5.3 93 0.5 WSW 22 26 12 14 1016.2 1014.3 2.8
27/02:30am 6.4 1.5 5.2 92 0.6 WSW 20 26 11 14 1016.3 1014.4 2.8
27/02:00am 6.7 1.1 5.3 91 0.6 WSW 24 32 13 17 1016.1 1014.2 2.8
27/01:30am 7.0 1.4 5.6 91 0.7 WSW 24 30 13 16 1016.3 1014.4 2.8
27/01:00am 7.7 1.1 6.0 89 0.8 WSW 30 35 16 19 1016.2 1014.3 2.8
27/12:30am 7.5 1.3 6.1 91 0.7 WSW 28 32 15 17 1016.2 1014.3 2.8
27/12:00am 8.0 1.8 6.3 89 0.8 WSW 28 33 15 18 1016.2 1014.3 2.8
 
Date/Time
EST
Temp
°C
App
Temp
°C
Dew
Point
Rel
Hum
%
Delta-T
°C
Wind Press
QNH
hPa
Press
MSL
hPa
Rain
since 9 am
mm
Dir
 
Spd
km/h
Gust
km/h
Spd
kts
Gust
kts
26/11:30pm 8.3 1.4 6.4 88 0.9 WSW 32 37 17 20 1016.1 1014.2 2.8
26/11:16pm 8.7 2.6 6.7 87 1.0 WSW 28 46 15 25 1016.1 1014.2 2.8
26/11:00pm 8.6 2.9 6.7 88 0.9 WSW 26 33 14 18 1016.2 1014.3 2.8
26/10:30pm 8.8 3.1 6.9 88 0.9 WSW 26 33 14 18 1016.2 1014.3 2.8
26/10:00pm 9.3 3.7 7.3 87 1.0 WSW 26 37 14 20 1016.3 1014.4 2.8
26/09:30pm 9.8 3.9 7.7 87 1.1 WSW 28 37 15 20 1016.1 1014.2 2.8
26/09:00pm 9.8 4.8 8.1 89 0.9 WSW 24 33 13 18 1016.1 1014.2 2.8
26/08:30pm 9.9 4.6 8.3 90 0.8 WSW 26 35 14 19 1015.9 1014.0 2.8
26/08:00pm 9.8 4.5 8.4 91 0.7 WSW 26 33 14 18 1015.5 1013.6 2.6
26/07:30pm 10.1 4.7 8.2 88 1.0 WSW 26 35 14 19 1015.3 1013.4 2.6
26/07:00pm 10.4 4.3 8.3 87 1.1 WSW 30 39 16 21 1015.0 1013.1 2.6
26/06:30pm 10.2 4.1 8.1 87 1.1 WSW 30 39 16 21 1014.5 1012.5 2.6
26/06:00pm 10.3 4.9 7.9 85 1.2 WSW 26 35 14 19 1014.2 1012.3 2.6
26/05:30pm 10.5 5.5 8.1 85 1.2 W 24 32 13 17 1013.9 1012.0 2.6
26/05:00pm 10.4 6.7 9.3 93 0.6 SW 19 22 10 12 1013.8 1011.9 2.6
26/04:30pm 10.4 7.5 9.5 94 0.5 SW 15 19 8 10 1013.4 1011.4 2.6
26/04:00pm 10.5 7.2 9.4 93 0.6 SW 17 22 9 12 1013.1 1011.1 2.4
26/03:30pm 12.4 6.5 7.7 73 2.4 SW 28 39 15 21 1012.4 1010.4 0.4
26/03:00pm 14.7 8.6 8.2 65 3.4 SW 30 37 16 20 1012.1 1010.1 0.4
26/02:30pm 14.2 7.5 8.2 67 3.1 SSW 33 44 18 24 1011.5 1009.6 0.4
26/02:00pm 12.1 6.5 8.6 79 1.8 SW 28 35 15 19 1011.2 1009.2 0.4
26/01:30pm 11.4 5.1 9.0 85 1.3 SW 32 44 17 24 1011.0 1009.0 0.4
26/01:00pm 11.3 4.5 9.4 88 1.0 SW 35 43 19 23 1010.6 1008.6 0.4
26/12:30pm 10.9 2.6 9.2 89 0.9 SW 43 50 23 27 1010.2 1008.2 0.4
26/12:00pm 11.4 3.2 8.1 80 1.7 SW 41 54 22 29 1010.0 1008.0 0.2
26/11:30am 10.9 2.6 7.8 81 1.6 SW 41 56 22 30 1009.9 1007.9 0.2
26/11:06am 10.6 2.9 7.1 79 1.7 SW 37 57 20 31 1009.9 1007.9 0.2
26/11:00am 10.9 3.4 7.8 81 1.6 SW 37 46 20 25 1009.9 1007.9 0.2
26/10:53am 10.8 2.9 8.0 83 1.4 SW 39 57 21 31 1009.9 1007.9 0.2
26/10:30am 10.4 1.7 7.5 82 1.5 SW 43 56 23 30 1009.8 1007.8 0.0
26/10:00am 10.0 0.6 7.3 83 1.3 SW 46 63 25 34 1009.3 1007.3 0.0
26/09:30am 8.9 1.0 7.7 92 0.6 WSW 39 54 21 29 1009.3 1007.3 0.0
26/09:00am 8.3 1.1 7.5 95 0.4 WSW 35 44 19 24 1009.4 1007.4 22.2
26/08:30am 7.7 0.0 7.1 96 0.3 WSW 37 46 20 25 1009.4 1007.4 21.8
26/08:00am 7.5 0.5 6.8 95 0.3 WSW 33 43 18 23 1009.1 1007.0 21.6
26/07:30am 7.4 0.4 6.7 95 0.3 SW 33 43 18 23 1008.8 1006.8 21.6
26/07:00am 7.3 0.8 6.6 95 0.3 WSW 30 39 16 21 1008.5 1006.5 21.6
26/06:30am 7.3 0.2 6.6 95 0.3 WSW 33 41 18 22 1008.2 1006.2 21.4
26/06:00am 7.2 -0.3 6.3 94 0.4 WSW 35 43 19 23 1007.6 1005.6 21.2
26/05:30am 6.8 -0.3 6.4 97 0.2 WSW 33 46 18 25 1007.5 1005.5 21.2
26/05:00am 6.8 -0.7 6.2 96 0.3 SW 35 43 19 23 1007.4 1005.4 21.2
26/04:30am 7.0 0.5 6.4 96 0.3 SW 30 37 16 20 1007.6 1005.6 21.2
26/04:00am 7.0 2.0 6.3 95 0.3 SW 22 32 12 17 1007.6 1005.6 21.2
26/03:30am 7.2 2.2 6.5 95 0.3 WSW 22 26 12 14 1007.5 1005.5 21.2
26/03:00am 7.5 2.2 6.6 94 0.4 WSW 24 32 13 17 1007.6 1005.6 21.2
26/02:30am 7.4 1.7 6.5 94 0.4 WSW 26 32 14 17 1007.8 1005.7 21.2
26/02:00am 7.3 2.3 6.4 94 0.4 W 22 28 12 15 1007.9 1005.8 21.2
26/01:30am 6.6 2.1 5.9 95 0.3 WSW 19 24 10 13 1008.0 1005.9 21.2
26/01:00am 7.0 1.9 5.9 93 0.5 WSW 22 28 12 15 1007.8 1005.7 21.2
26/12:30am 6.8 0.9 5.7 93 0.5 WSW 26 30 14 16 1007.8 1005.7 21.2
26/12:00am 7.2 1.3 6.0 92 0.6 W 26 32 14 17 1007.6 1005.6 21.2
 
Date/Time
EST
Temp
°C
App
Temp
°C
Dew
Point
Rel
Hum
%
Delta-T
°C
Wind Press
QNH
hPa
Press
MSL
hPa
Rain
since 9 am
mm
Dir
 
Spd
km/h
Gust
km/h
Spd
kts
Gust
kts
25/11:30pm 7.4 3.0 6.5 94 0.4 WNW 19 24 10 13 1007.8 1005.7 21.2
25/11:00pm 7.6 3.9 6.2 91 0.7 W 15 24 8 13 1008.4 1006.4 21.2
25/10:30pm 7.6 2.7 6.7 94 0.4 WSW 22 28 12 15 1008.6 1006.6 21.2
25/10:00pm 8.1 3.8 7.7 97 0.2 W 20 28 11 15 1008.5 1006.5 21.2
25/09:30pm 7.9 6.0 7.6 98 0.1 SSW 7 9 4 5 1008.3 1006.3 21.2
25/09:00pm 8.2 6.4 7.8 97 0.2 S 7 9 4 5 1008.5 1006.5 21.0
25/08:30pm 8.3 5.7 7.9 97 0.2 NE 11 15 6 8 1008.9 1006.9 21.0
25/08:00pm 8.4 7.1 7.6 95 0.4 SSE 4 7 2 4 1009.5 1007.5 20.0
25/07:30pm 8.3 6.1 7.7 96 0.3 S 9 15 5 8 1009.1 1007.0 20.0
25/07:00pm 8.4 4.7 7.8 96 0.3 S 17 20 9 11 1008.4 1006.4 19.8
25/06:30pm 8.3 4.9 7.5 95 0.4 SW 15 22 8 12 1008.7 1006.7 17.4
25/06:00pm 8.2 3.1 7.6 96 0.3 SSW 24 28 13 15 1007.9 1005.8 15.6
25/05:30pm 8.6 4.3 7.2 91 0.7 WSW 19 28 10 15 1008.3 1006.3 13.0
25/05:00pm 8.9 5.1 7.5 91 0.7 SSW 17 26 9 14 1007.5 1005.5 11.8
25/04:30pm 9.2 3.7 7.5 89 0.8 S 26 33 14 18 1007.0 1004.9 10.4
25/04:00pm 12.2 6.0 7.9 75 2.2 S 30 39 16 21 1006.6 1004.5 5.8
25/03:57pm 12.6 6.7 7.5 71 2.6 SSE 28 39 15 21 1006.6 1004.5 5.8
25/03:30pm 13.6 10.7 9.6 77 2.1 S 15 19 8 10 1007.0 1004.9 5.8
25/03:00pm 14.7 12.9 8.0 64 3.5 SE 7 13 4 7 1006.7 1004.6 5.8
25/02:30pm 14.6 14.0 10.4 76 2.3 NNE 4 4 2 2 1006.8 1004.7 0.2
25/02:00pm 15.7 14.0 9.8 68 3.2 NE 9 15 5 8 1006.6 1004.5 0.0
25/01:30pm 17.6 15.8 9.5 59 4.4 NNE 9 19 5 10 1006.9 1004.8 0.0
25/01:00pm 17.4 15.4 8.5 56 4.8 N 9 13 5 7 1007.4 1005.4 0.0
25/12:30pm 16.1 14.6 9.1 63 3.8 WNW 7 11 4 6 1008.0 1005.9 0.0
25/12:00pm 16.9 14.7 7.8 55 4.8 W 9 15 5 8 1008.4 1006.4 0.0
25/11:30am 16.7 14.6 8.1 57 4.6 WNW 9 13 5 7 1008.8 1006.8 0.0
25/11:00am 15.6 13.6 8.6 63 3.7 WNW 9 13 5 7 1009.3 1007.3 0.0
25/10:30am 16.0 13.6 8.5 61 4.0 WNW 11 17 6 9 1009.4 1007.4 0.0

Other Formats:

Comma delimited format used in spreadsheet applications
http://www.bom.gov.au/fwo/IDN60801/IDN60801.99742.axf

JavaScript Object Notation format (JSON) in row-major order
http://www.bom.gov.au/fwo/IDN60801/IDN60801.99742.json